Time;durP1;ratioP1;P1;durP2;ratioP2;P2;SDS_P1;SDS_P2;PMS_P1;PMS_P2;Temp;Humidity;BMP_temperature;BMP_pressure;BME280_temperature;BME280_humidity;BME280_pressure;Samples;Min_cycle;Max_cycle;Signal;HPM_P1;HPM_P2
2021/05/01 00:02:11;;;;;;;13.25;10.48;;;;;;;-143.98;100.00;68091.63;6229535;23;20024;-81
2021/05/01 00:04:38;;;;;;;11.93;9.90;;;;;;;-143.98;100.00;68091.63;6223595;23;20029;-80
2021/05/01 00:07:14;;;;;;;13.65;11.02;;;;;;;-143.98;100.00;68091.63;6200259;23;20028;-80
2021/05/01 00:09:43;;;;;;;17.60;10.13;;;;;;;-143.98;100.00;68091.63;6175927;23;20036;-81
2021/05/01 00:12:12;;;;;;;15.20;10.30;;;;;;;-143.98;100.00;68091.63;6202015;23;20012;-80
2021/05/01 00:14:42;;;;;;;14.98;10.95;;;;;;;-143.98;100.00;68091.63;6226444;23;20028;-81
2021/05/01 00:17:17;;;;;;;16.83;11.95;;;;;;;-143.98;100.00;68091.63;6202199;23;20032;-81
2021/05/01 00:19:44;;;;;;;18.67;11.43;;;;;;;-143.98;100.00;68091.63;6209902;23;20044;-80
2021/05/01 00:22:10;;;;;;;15.75;11.10;;;;;;;-143.98;100.00;68091.63;6185069;23;20008;-80
2021/05/01 00:24:36;;;;;;;15.35;11.15;;;;;;;-143.98;100.00;68091.63;6211153;23;20424;-81
2021/05/01 00:27:02;;;;;;;15.82;12.32;;;;;;;-143.98;100.00;68091.63;6211328;23;20078;-80
2021/05/01 00:29:30;;;;;;;14.90;11.63;;;;;;;-143.98;100.00;68091.63;6185448;23;20036;-82
2021/05/01 00:31:56;;;;;;;17.63;11.90;;;;;;;-143.98;100.00;68091.63;6183791;23;20063;-82
2021/05/01 00:34:32;;;;;;;17.60;12.73;;;;;;;-143.98;100.00;68091.63;6181796;23;20038;-82
2021/05/01 00:36:58;;;;;;;16.30;12.00;;;;;;;-143.98;100.00;68091.63;6207165;23;20016;-81
2021/05/01 00:39:24;;;;;;;16.55;12.65;;;;;;;-143.98;100.00;68091.63;6240472;23;20051;-81
2021/05/01 00:41:50;;;;;;;16.30;12.30;;;;;;;-143.98;100.00;68091.63;6213831;23;20019;-82
2021/05/01 00:44:23;;;;;;;17.60;12.75;;;;;;;-143.98;100.00;68091.63;6179970;23;20029;-81
2021/05/01 00:46:49;;;;;;;18.80;13.10;;;;;;;-143.98;100.00;68091.63;6231081;23;20082;-81
2021/05/01 00:49:15;;;;;;;17.25;13.00;;;;;;;-143.98;100.00;68091.63;6209196;23;20013;-82
2021/05/01 00:51:45;;;;;;;20.35;14.45;;;;;;;-143.98;100.00;68091.63;6189442;23;20012;-81
2021/05/01 00:54:12;;;;;;;19.42;14.07;;;;;;;-143.98;100.00;68091.63;6205615;23;20028;-82
2021/05/01 00:56:39;;;;;;;20.25;14.50;;;;;;;-143.98;100.00;68091.63;6230339;23;20039;-81
2021/05/01 01:02:47;;;;;;;24.25;15.15;;;;;;;-143.98;100.00;68091.63;6230214;23;20321;-81
2021/05/01 01:05:13;;;;;;;23.02;16.13;;;;;;;-143.98;100.00;68091.63;6207198;23;20051;-81
2021/05/01 01:07:42;;;;;;;23.50;16.83;;;;;;;-143.98;100.00;68091.63;6238697;23;20107;-81
2021/05/01 01:10:18;;;;;;;22.88;16.08;;;;;;;-143.98;100.00;68091.63;6216976;23;20028;-82
2021/05/01 01:12:45;;;;;;;25.17;16.17;;;;;;;-143.98;100.00;68091.63;6241432;23;20024;-82
2021/05/01 01:15:26;;;;;;;25.20;17.27;;;;;;;-143.98;100.00;68091.63;6235393;23;20024;-81
2021/05/01 01:17:56;;;;;;;26.40;16.83;;;;;;;-143.98;100.00;68091.63;6185674;23;20032;-81
2021/05/01 01:20:27;;;;;;;25.05;16.75;;;;;;;-143.98;100.00;68091.63;6232637;23;20020;-82
2021/05/01 01:22:55;;;;;;;25.35;16.98;;;;;;;-143.98;100.00;68091.63;6210534;23;20475;-81
2021/05/01 01:25:23;;;;;;;26.65;16.92;;;;;;;-143.98;100.00;68091.63;6233479;23;20279;-81
2021/05/01 01:27:56;;;;;;;25.27;16.75;;;;;;;-143.98;100.00;68091.63;6232599;23;20024;-81
2021/05/01 01:30:29;;;;;;;26.55;17.13;;;;;;;-143.98;100.00;68091.63;6230852;23;20081;-80
2021/05/01 01:33:00;;;;;;;24.95;17.17;;;;;;;-143.98;100.00;68091.63;6233623;23;20032;-81
2021/05/01 01:35:48;;;;;;;24.02;16.58;;;;;;;-143.98;100.00;68091.63;6243419;23;20079;-80
2021/05/01 01:38:17;;;;;;;25.85;17.55;;;;;;;-143.98;100.00;68091.63;6243908;23;20012;-81
2021/05/01 01:40:44;;;;;;;29.13;18.27;;;;;;;-143.98;100.00;68091.63;6270777;22;20024;-80
2021/05/01 01:43:10;;;;;;;29.38;18.77;;;;;;;-143.98;100.00;68091.63;6244889;22;20028;-80
2021/05/01 01:45:39;;;;;;;25.15;17.52;;;;;;;-143.98;100.00;68091.63;6221343;22;20016;-81
2021/05/01 01:48:06;;;;;;;29.08;19.48;;;;;;;-143.98;100.00;68091.63;6242770;23;20020;-80
2021/05/01 01:50:33;;;;;;;26.30;17.40;;;;;;;-143.98;100.00;68091.63;6220664;22;20047;-80
2021/05/01 01:53:04;;;;;;;25.27;18.40;;;;;;;-143.98;100.00;68091.63;6221301;22;20013;-80
2021/05/01 01:55:31;;;;;;;26.02;17.95;;;;;;;-143.98;100.00;68091.63;6246447;22;20071;-80
2021/05/01 01:57:58;;;;;;;26.25;18.10;;;;;;;-143.98;100.00;68091.63;6246391;23;20022;-80
2021/05/01 02:00:43;;;;;;;29.13;19.73;;;;;;;-143.98;100.00;68091.63;6271513;22;20050;-81
2021/05/01 02:03:14;;;;;;;26.48;17.58;;;;;;;-143.98;100.00;68091.63;6244440;23;20038;-80
2021/05/01 02:05:42;;;;;;;29.60;19.52;;;;;;;-143.98;100.00;68091.63;6230854;23;20028;-80
2021/05/01 02:08:13;;;;;;;28.08;19.08;;;;;;;-143.98;100.00;68091.63;6260169;23;20024;-80
2021/05/01 02:10:43;;;;;;;26.40;17.88;;;;;;;-143.98;100.00;68091.63;6230844;23;20028;-80
2021/05/01 02:13:09;;;;;;;27.52;19.30;;;;;;;-143.98;100.00;68091.63;6230544;23;20043;-80
2021/05/01 02:15:39;;;;;;;28.08;19.38;;;;;;;-143.98;100.00;68091.63;6236627;23;20028;-80
2021/05/01 02:18:08;;;;;;;29.58;19.23;;;;;;;-143.98;100.00;68091.63;6242910;23;20028;-80
2021/05/01 02:20:36;;;;;;;29.50;19.55;;;;;;;-143.98;100.00;68091.63;6240688;23;20047;-80
2021/05/01 02:23:09;;;;;;;29.52;19.85;;;;;;;-143.98;100.00;68091.63;6236024;23;20166;-81
2021/05/01 02:25:36;;;;;;;28.35;19.38;;;;;;;-143.98;100.00;68091.63;6209776;23;20023;-81
2021/05/01 02:28:02;;;;;;;32.33;20.05;;;;;;;-143.98;100.00;68091.63;6234072;23;20107;-81
2021/05/01 02:30:28;;;;;;;31.70;20.95;;;;;;;-143.98;100.00;68091.63;6235005;23;20154;-81
2021/05/01 02:32:58;;;;;;;32.67;20.13;;;;;;;-143.98;100.00;68091.63;6260560;23;20028;-81
2021/05/01 02:35:31;;;;;;;29.02;19.60;;;;;;;-143.98;100.00;68091.63;6241230;23;20015;-81
2021/05/01 02:37:58;;;;;;;33.22;21.67;;;;;;;-143.98;100.00;68091.63;6269676;23;20064;-80
2021/05/01 02:40:28;;;;;;;30.17;20.08;;;;;;;-143.98;100.00;68091.63;6234699;23;20059;-81
2021/05/01 02:43:21;;;;;;;32.28;20.63;;;;;;;-143.98;100.00;68091.63;6234148;23;20044;-80
2021/05/01 02:45:56;;;;;;;32.50;20.73;;;;;;;-143.98;100.00;68091.63;6259024;23;20046;-82
2021/05/01 02:48:33;;;;;;;32.40;20.80;;;;;;;-143.98;100.00;68091.63;6234238;23;20024;-80
2021/05/01 02:51:05;;;;;;;30.40;20.58;;;;;;;-143.98;100.00;68091.63;6233199;23;20036;-81
2021/05/01 02:53:31;;;;;;;34.42;21.80;;;;;;;-143.98;100.00;68091.63;6232998;23;20035;-80
2021/05/01 02:55:58;;;;;;;32.13;21.13;;;;;;;-143.98;100.00;68091.63;6232014;23;20028;-81
2021/05/01 02:58:30;;;;;;;36.80;21.45;;;;;;;-143.98;100.00;68091.63;6232396;23;20024;-80
2021/05/01 03:01:01;;;;;;;32.60;22.10;;;;;;;-143.98;100.00;68091.63;6208624;23;20083;-81
2021/05/01 03:03:29;;;;;;;33.58;21.98;;;;;;;-143.98;100.00;68091.63;6208244;23;20030;-80
2021/05/01 03:05:56;;;;;;;36.60;23.05;;;;;;;-143.98;100.00;68091.63;6209441;23;20024;-80
2021/05/01 03:08:37;;;;;;;34.35;21.33;;;;;;;-143.98;100.00;68091.63;6235479;23;20062;-80
2021/05/01 03:11:09;;;;;;;32.40;22.48;;;;;;;-143.98;100.00;68091.63;6208712;23;20024;-80
2021/05/01 03:13:36;;;;;;;34.13;23.13;;;;;;;-143.98;100.00;68091.63;6209455;23;20028;-80
2021/05/01 03:16:05;;;;;;;37.40;24.88;;;;;;;-143.98;100.00;68091.63;6233124;23;20110;-81
2021/05/01 03:18:31;;;;;;;37.97;24.00;;;;;;;-143.98;100.00;68091.63;6231578;23;20024;-81
2021/05/01 03:21:11;;;;;;;36.85;25.08;;;;;;;-143.98;100.00;68091.63;6229848;23;20024;-81
2021/05/01 03:23:37;;;;;;;39.30;24.65;;;;;;;-143.98;100.00;68091.63;6255334;23;20040;-80
2021/05/01 03:26:12;;;;;;;37.53;23.42;;;;;;;-143.98;100.00;68091.63;6203895;23;20089;-80
2021/05/01 03:28:47;;;;;;;37.97;24.77;;;;;;;-143.98;100.00;68091.63;6252852;23;20321;-80
2021/05/01 03:31:14;;;;;;;40.80;24.40;;;;;;;-143.98;100.00;68091.63;6252713;23;20040;-80
2021/05/01 03:33:41;;;;;;;40.97;24.75;;;;;;;-143.98;100.00;68091.63;6238322;23;20023;-80
2021/05/01 03:36:16;;;;;;;39.65;25.33;;;;;;;-143.98;100.00;68091.63;6217991;23;20355;-80
2021/05/01 03:38:43;;;;;;;39.70;24.17;;;;;;;-143.98;100.00;68091.63;6267223;23;20028;-80
2021/05/01 03:41:09;;;;;;;40.90;25.73;;;;;;;-143.98;100.00;68091.63;6239246;23;20031;-81
2021/05/01 03:43:36;;;;;;;37.15;25.02;;;;;;;-143.98;100.00;68091.63;6239959;23;20028;-80
2021/05/01 03:46:02;;;;;;;39.20;25.63;;;;;;;-143.98;100.00;68091.63;6239870;23;20034;-80
2021/05/01 03:48:31;;;;;;;38.38;24.40;;;;;;;-143.98;100.00;68091.63;6234726;23;20034;-80
2021/05/01 03:51:04;;;;;;;35.00;23.30;;;;;;;-143.98;100.00;68091.63;6258744;23;20098;-81
2021/05/01 03:53:36;;;;;;;40.65;26.10;;;;;;;-143.98;100.00;68091.63;6232927;23;20072;-80
2021/05/01 03:56:05;;;;;;;41.72;25.98;;;;;;;-143.98;100.00;68091.63;6240194;23;20034;-80
2021/05/01 03:58:31;;;;;;;42.13;26.95;;;;;;;-143.98;100.00;68091.63;6266935;23;20032;-80
2021/05/01 04:01:06;;;;;;;42.40;26.02;;;;;;;-143.98;100.00;68091.63;6261401;23;20028;-82
2021/05/01 04:03:33;;;;;;;41.70;26.83;;;;;;;-143.98;100.00;68091.63;6208514;23;20024;-81
2021/05/01 04:06:04;;;;;;;42.55;26.55;;;;;;;-143.98;100.00;68091.63;6235403;23;20024;-79
2021/05/01 04:08:34;;;;;;;44.72;27.70;;;;;;;-143.98;100.00;68091.63;6241227;23;20052;-80
2021/05/01 04:11:06;;;;;;;41.25;25.48;;;;;;;-143.98;100.00;68091.63;6238661;23;20097;-81
2021/05/01 04:13:41;;;;;;;44.60;26.70;;;;;;;-143.98;100.00;68091.63;6234323;23;20023;-81
2021/05/01 04:16:07;;;;;;;42.53;26.55;;;;;;;-143.98;100.00;68091.63;6260435;23;20060;-80
2021/05/01 04:18:36;;;;;;;41.10;27.17;;;;;;;-143.98;100.00;68091.63;6258578;23;20029;-80
2021/05/01 04:21:02;;;;;;;39.55;25.45;;;;;;;-143.98;100.00;68091.63;6232801;23;20138;-80
2021/05/01 04:23:37;;;;;;;41.05;26.17;;;;;;;-143.98;100.00;68091.63;6260461;23;20059;-81
2021/05/01 04:26:06;;;;;;;42.33;25.85;;;;;;;-143.98;100.00;68091.63;6233803;23;20028;-81
2021/05/01 04:28:36;;;;;;;37.78;25.75;;;;;;;-143.98;100.00;68091.63;6260291;23;20059;-81
2021/05/01 04:31:14;;;;;;;42.45;27.02;;;;;;;-143.98;100.00;68091.63;6233461;23;20024;-81
2021/05/01 04:33:41;;;;;;;38.65;25.52;;;;;;;-143.98;100.00;68091.63;6207385;23;20039;-81
2021/05/01 04:36:07;;;;;;;40.75;26.13;;;;;;;-143.98;100.00;68091.63;6258520;23;20028;-81
2021/05/01 04:38:49;;;;;;;40.13;25.77;;;;;;;-143.98;100.00;68091.63;6232795;23;20028;-81
2021/05/01 04:41:15;;;;;;;39.85;26.13;;;;;;;-143.98;100.00;68091.63;6207005;23;20028;-81
2021/05/01 04:43:44;;;;;;;40.40;26.00;;;;;;;-143.98;100.00;68091.63;6232156;23;20024;-80
2021/05/01 04:46:14;;;;;;;38.70;25.10;;;;;;;-143.98;100.00;68091.63;6234407;23;20032;-81
2021/05/01 04:48:47;;;;;;;38.33;25.05;;;;;;;-143.98;100.00;68091.63;6234048;23;20313;-80
2021/05/01 04:51:18;;;;;;;35.10;24.13;;;;;;;-143.98;100.00;68091.63;6234815;23;20035;-81
2021/05/01 04:53:45;;;;;;;35.78;24.88;;;;;;;-143.98;100.00;68091.63;6210096;23;20306;-81
2021/05/01 04:56:11;;;;;;;43.90;25.35;;;;;;;-143.98;100.00;68091.63;6211715;23;20102;-81
2021/05/01 04:58:44;;;;;;;38.05;25.90;;;;;;;-143.98;100.00;68091.63;6213309;23;20214;-81
2021/05/01 05:01:10;;;;;;;37.70;25.67;;;;;;;-143.98;100.00;68091.63;6238781;23;20023;-81
2021/05/01 05:03:36;;;;;;;38.05;25.17;;;;;;;-143.98;100.00;68091.63;6235050;23;20115;-80
2021/05/01 05:06:09;;;;;;;38.08;25.13;;;;;;;-143.98;100.00;68091.63;6234186;23;20036;-81
2021/05/01 05:08:35;;;;;;;39.20;26.23;;;;;;;-143.98;100.00;68091.63;6232211;23;20093;-81
2021/05/01 05:11:02;;;;;;;40.90;27.15;;;;;;;-143.98;100.00;68091.63;6260216;23;20038;-81
2021/05/01 05:13:33;;;;;;;37.17;25.40;;;;;;;-143.98;100.00;68091.63;6261036;23;20038;-81
2021/05/01 05:16:00;;;;;;;37.65;24.95;;;;;;;-143.98;100.00;68091.63;6237128;23;20028;-82
2021/05/01 05:18:28;;;;;;;40.50;27.00;;;;;;;-143.98;100.00;68091.63;6216528;23;20038;-81
2021/05/01 05:21:03;;;;;;;39.88;26.52;;;;;;;-143.98;100.00;68091.63;6245426;23;20024;-81
2021/05/01 05:23:35;;;;;;;44.75;28.88;;;;;;;-143.98;100.00;68091.63;6239727;23;20103;-81
2021/05/01 05:26:03;;;;;;;48.85;28.27;;;;;;;-143.98;100.00;68091.63;6237375;23;20055;-81
2021/05/01 05:28:35;;;;;;;45.22;28.00;;;;;;;-143.98;100.00;68091.63;6236625;23;20028;-81
2021/05/01 05:31:02;;;;;;;45.80;28.45;;;;;;;-143.98;100.00;68091.63;6211237;23;20079;-81
2021/05/01 05:33:31;;;;;;;47.53;29.42;;;;;;;-143.98;100.00;68091.63;6235155;23;20020;-81
2021/05/01 05:36:04;;;;;;;50.72;29.38;;;;;;;-143.98;100.00;68091.63;6234689;23;20051;-81
2021/05/01 05:38:31;;;;;;;44.45;28.13;;;;;;;-143.98;100.00;68091.63;6234152;23;20054;-81
2021/05/01 05:40:57;;;;;;;44.50;29.77;;;;;;;-143.98;100.00;68091.63;6260258;23;20038;-81
2021/05/01 05:43:33;;;;;;;47.20;28.83;;;;;;;-143.98;100.00;68091.63;6238347;23;20039;-80
2021/05/01 05:46:14;;;;;;;45.15;27.52;;;;;;;-143.98;100.00;68091.63;6243084;23;20024;-81
2021/05/01 05:48:41;;;;;;;45.40;28.40;;;;;;;-143.98;100.00;68091.63;6238426;23;20048;-80
2021/05/01 05:51:13;;;;;;;45.85;30.33;;;;;;;-143.98;100.00;68091.63;6207791;23;20035;-80
2021/05/01 05:53:40;;;;;;;46.85;29.45;;;;;;;-143.98;100.00;68091.63;6231723;23;20417;-81
2021/05/01 05:56:07;;;;;;;47.63;29.88;;;;;;;-143.98;100.00;68091.63;6259156;23;20035;-82
2021/05/01 05:58:49;;;;;;;50.03;31.55;;;;;;;-143.98;100.00;68091.63;6259631;23;20039;-82
2021/05/01 06:01:16;;;;;;;48.88;30.77;;;;;;;-143.98;100.00;68091.63;6261452;23;20032;-81
2021/05/01 06:03:47;;;;;;;48.58;30.20;;;;;;;-143.98;100.00;68091.63;6259472;23;20023;-82
2021/05/01 06:06:26;;;;;;;47.00;30.92;;;;;;;-143.98;100.00;68091.63;6209882;23;20032;-82
2021/05/01 06:08:53;;;;;;;52.10;31.80;;;;;;;-143.98;100.00;68091.63;6234993;23;20176;-82
2021/05/01 06:11:20;;;;;;;52.33;33.25;;;;;;;-143.98;100.00;68091.63;6234373;23;20051;-82
2021/05/01 06:14:02;;;;;;;49.20;31.52;;;;;;;-143.98;100.00;68091.63;6233817;23;20030;-82
2021/05/01 06:16:30;;;;;;;49.30;30.60;;;;;;;-143.98;100.00;68091.63;6234127;23;20031;-81
2021/05/01 06:18:58;;;;;;;48.03;30.52;;;;;;;-143.98;100.00;68091.63;6208695;23;20266;-81
2021/05/01 06:21:38;;;;;;;49.30;31.63;;;;;;;-143.98;100.00;68091.63;6234093;23;20398;-81
2021/05/01 06:24:04;;;;;;;51.30;32.13;;;;;;;-143.98;100.00;68091.63;6207998;23;20051;-81
2021/05/01 06:26:32;;;;;;;50.08;32.15;;;;;;;-143.98;100.00;68091.63;6233884;23;20088;-81
2021/05/01 06:28:59;;;;;;;47.90;30.08;;;;;;;-143.98;100.00;68091.63;6259398;23;20231;-81
2021/05/01 06:31:25;;;;;;;46.95;29.40;;;;;;;-143.98;100.00;68091.63;6261201;23;20032;-81
2021/05/01 06:33:58;;;;;;;45.28;30.73;;;;;;;-143.98;100.00;68091.63;6258361;23;20257;-83
2021/05/01 06:36:28;;;;;;;49.38;29.58;;;;;;;-143.98;100.00;68091.63;6264679;23;20024;-80
2021/05/01 06:38:59;;;;;;;43.55;29.30;;;;;;;-143.98;100.00;68091.63;6264039;23;20032;-81
2021/05/01 06:41:27;;;;;;;48.17;30.45;;;;;;;-143.98;100.00;68091.63;6238696;23;20032;-81
2021/05/01 06:44:04;;;;;;;45.55;31.30;;;;;;;-143.98;100.00;68091.63;6256977;23;20024;-81
2021/05/01 06:46:33;;;;;;;47.42;29.70;;;;;;;-143.98;100.00;68091.63;6231646;23;20031;-81
2021/05/01 06:49:02;;;;;;;47.22;31.25;;;;;;;-143.98;100.00;68091.63;6238228;23;20058;-81
2021/05/01 06:51:49;;;;;;;42.40;29.13;;;;;;;-143.98;100.00;68091.63;6266471;23;20227;-80
2021/05/01 06:54:15;;;;;;;44.25;28.45;;;;;;;-143.98;100.00;68091.63;6238292;23;20036;-82
2021/05/01 06:56:43;;;;;;;48.70;28.83;;;;;;;-143.98;100.00;68091.63;6239981;23;20098;-81
2021/05/01 06:59:11;;;;;;;48.08;31.15;;;;;;;-143.98;100.00;68091.63;6230919;23;20020;-79
2021/05/01 07:01:40;;;;;;;50.42;32.05;;;;;;;-143.98;100.00;68091.63;6239301;23;20016;-80
2021/05/01 07:04:08;;;;;;;45.40;29.63;;;;;;;-143.98;100.00;68091.63;6240136;23;20070;-80
2021/05/01 07:06:37;;;;;;;44.67;29.23;;;;;;;-143.98;100.00;68091.63;6215702;23;20024;-78
2021/05/01 07:09:04;;;;;;;47.25;31.73;;;;;;;-143.98;100.00;68091.63;6229623;23;20028;-78
2021/05/01 07:11:30;;;;;;;45.85;29.25;;;;;;;-143.98;100.00;68091.63;6200029;23;20028;-81
2021/05/01 07:14:03;;;;;;;44.95;30.55;;;;;;;-143.98;100.00;68091.63;6200073;23;20028;-80
2021/05/01 07:16:29;;;;;;;48.08;30.90;;;;;;;-143.98;100.00;68091.63;6206031;23;20084;-80
2021/05/01 07:18:56;;;;;;;50.72;33.35;;;;;;;-143.98;100.00;68091.63;6224154;23;20094;-79
2021/05/01 07:21:22;;;;;;;44.72;29.63;;;;;;;-143.98;100.00;68091.63;6247323;23;20039;-79
2021/05/01 07:23:58;;;;;;;50.17;29.90;;;;;;;-143.98;100.00;68091.63;6221930;23;20052;-79
2021/05/01 07:26:25;;;;;;;46.78;30.65;;;;;;;-143.98;100.00;68091.63;6223911;23;20038;-80
2021/05/01 07:28:53;;;;;;;46.80;30.25;;;;;;;-143.98;100.00;68091.63;6207895;23;20047;-79
2021/05/01 07:31:24;;;;;;;44.97;28.27;;;;;;;-143.98;100.00;68091.63;6220463;23;20024;-79
2021/05/01 07:33:53;;;;;;;43.63;29.33;;;;;;;-143.98;100.00;68091.63;6195472;23;20024;-79
2021/05/01 07:36:23;;;;;;;46.63;30.38;;;;;;;-143.98;100.00;68091.63;6194239;23;20131;-79
2021/05/01 07:38:51;;;;;;;50.75;34.05;;;;;;;-143.98;100.00;68091.63;6198600;23;20394;-79
2021/05/01 07:41:20;;;;;;;48.47;34.13;;;;;;;-143.98;100.00;68091.63;6227114;23;20028;-80
2021/05/01 07:43:51;;;;;;;42.10;29.17;;;;;;;-143.98;100.00;68091.63;6225254;23;20020;-80
2021/05/01 07:46:20;;;;;;;50.63;33.47;;;;;;;-143.98;100.00;68091.63;6222973;23;20039;-79
2021/05/01 07:48:47;;;;;;;42.17;30.42;;;;;;;-143.98;100.00;68091.63;6195418;23;20028;-80
2021/05/01 07:51:14;;;;;;;41.90;29.67;;;;;;;-143.98;100.00;68091.63;6218532;23;20028;-80
2021/05/01 07:53:44;;;;;;;54.97;35.00;;;;;;;-143.98;100.00;68091.63;6195419;23;20028;-80
2021/05/01 07:56:18;;;;;;;53.00;33.67;;;;;;;-143.98;100.00;68091.63;6195198;23;20067;-80
2021/05/01 07:58:44;;;;;;;49.97;35.03;;;;;;;-143.98;100.00;68091.63;6219710;23;20354;-80
2021/05/01 08:01:10;;;;;;;53.50;36.15;;;;;;;-143.98;100.00;68091.63;6197327;23;20076;-80
2021/05/01 08:03:37;;;;;;;56.55;37.05;;;;;;;-143.98;100.00;68091.63;6242950;23;20103;-80
2021/05/01 08:06:04;;;;;;;53.17;35.35;;;;;;;-143.98;100.00;68091.63;6219171;23;20070;-81
2021/05/01 08:08:30;;;;;;;51.80;32.85;;;;;;;-143.98;100.00;68091.63;6217561;23;20035;-80
2021/05/01 08:11:03;;;;;;;48.67;34.20;;;;;;;-143.98;100.00;68091.63;6217630;23;20227;-80
2021/05/01 08:13:29;;;;;;;57.17;38.10;;;;;;;-143.98;100.00;68091.63;6191763;23;20260;-80
2021/05/01 08:15:56;;;;;;;58.00;38.33;;;;;;;-143.98;100.00;68091.63;6217575;23;20032;-80
2021/05/01 08:18:32;;;;;;;55.38;36.55;;;;;;;-143.98;100.00;68091.63;6194485;23;20034;-80
2021/05/01 08:20:58;;;;;;;56.00;36.05;;;;;;;-143.98;100.00;68091.63;6218908;23;20025;-81
2021/05/01 08:23:24;;;;;;;62.13;37.95;;;;;;;-143.98;100.00;68091.63;6219531;23;20028;-80
2021/05/01 08:25:51;;;;;;;53.47;36.15;;;;;;;-143.98;100.00;68091.63;6246754;23;20038;-79
2021/05/01 08:28:17;;;;;;;52.08;34.22;;;;;;;-143.98;100.00;68091.63;6195223;23;20028;-80
2021/05/01 08:30:44;;;;;;;51.47;33.63;;;;;;;-143.98;100.00;68091.63;6194845;23;20032;-80
2021/05/01 08:33:10;;;;;;;51.67;35.90;;;;;;;-143.98;100.00;68091.63;6221138;23;20087;-80
2021/05/01 08:35:37;;;;;;;60.20;37.90;;;;;;;-143.98;100.00;68091.63;6220880;23;20016;-81
2021/05/01 08:38:08;;;;;;;58.72;38.00;;;;;;;-143.98;100.00;68091.63;6197010;23;20112;-80
2021/05/01 08:40:35;;;;;;;60.40;37.30;;;;;;;-143.98;100.00;68091.63;6198781;23;20131;-80
2021/05/01 08:43:08;;;;;;;54.63;36.25;;;;;;;-143.98;100.00;68091.63;6218708;23;20115;-79
2021/05/01 08:45:34;;;;;;;62.92;41.33;;;;;;;-143.98;100.00;68091.63;6196940;23;20035;-80
2021/05/01 08:48:04;;;;;;;66.57;41.20;;;;;;;-143.98;100.00;68091.63;6222546;23;20141;-80
2021/05/01 08:50:41;;;;;;;65.85;40.35;;;;;;;-143.98;100.00;68091.63;6198334;23;20025;-80
2021/05/01 08:53:08;;;;;;;72.57;44.75;;;;;;;-143.98;100.00;68091.63;6199103;23;20024;-80
2021/05/01 08:55:38;;;;;;;69.45;42.92;;;;;;;-143.98;100.00;68091.63;6208898;23;20117;-80
2021/05/01 08:58:09;;;;;;;70.13;41.92;;;;;;;-143.98;100.00;68091.63;6202679;23;20069;-80
2021/05/01 09:00:41;;;;;;;74.47;45.58;;;;;;;-143.98;100.00;68091.63;6194266;23;20414;-80
2021/05/01 09:03:09;;;;;;;73.53;44.85;;;;;;;-143.98;100.00;68091.63;6193582;23;20081;-80
2021/05/01 09:05:39;;;;;;;77.13;47.35;;;;;;;-143.98;100.00;68091.63;6223580;23;20047;-82
2021/05/01 09:08:08;;;;;;;81.53;47.90;;;;;;;-143.98;100.00;68091.63;6216344;23;20032;-78
2021/05/01 09:10:49;;;;;;;87.75;48.42;;;;;;;-143.98;100.00;68091.63;6193257;23;20036;-79
2021/05/01 09:13:22;;;;;;;89.68;51.72;;;;;;;-143.98;100.00;68091.63;6220743;23;20028;-80
2021/05/01 09:15:59;;;;;;;93.18;51.47;;;;;;;-143.98;100.00;68091.63;6196151;23;20028;-79
2021/05/01 09:18:27;;;;;;;91.72;52.22;;;;;;;-143.98;100.00;68091.63;6250513;23;20036;-85
2021/05/01 09:20:53;;;;;;;93.63;52.13;;;;;;;-143.98;100.00;68091.63;6198663;23;20059;-84
2021/05/01 09:23:36;;;;;;;96.05;52.17;;;;;;;-143.98;100.00;68091.63;6226969;23;20065;-83
2021/05/01 09:26:02;;;;;;;129.20;52.72;;;;;;;-143.98;100.00;68091.63;6232001;23;20027;-84
2021/05/01 09:28:43;;;;;;;106.35;53.03;;;;;;;-143.98;100.00;68091.63;6236705;23;20259;-85
2021/05/01 09:31:15;;;;;;;94.95;56.78;;;;;;;-143.98;100.00;68091.63;6201982;23;20024;-85
2021/05/01 09:33:43;;;;;;;97.57;55.92;;;;;;;-143.98;100.00;68091.63;6225827;23;20024;-86
2021/05/01 09:36:57;;;;;;;103.63;59.85;;;;;;;-143.98;100.00;68091.63;6230722;23;20421;-85
2021/05/01 09:39:28;;;;;;;115.40;63.67;;;;;;;-143.98;100.00;68091.63;6226386;23;20028;-84
2021/05/01 09:41:58;;;;;;;110.70;66.85;;;;;;;-143.98;100.00;68091.63;6226022;23;20051;-85
2021/05/01 09:44:25;;;;;;;121.93;70.72;;;;;;;-143.98;100.00;68091.63;6223283;23;20024;-84
2021/05/01 09:46:58;;;;;;;109.78;65.55;;;;;;;-143.98;100.00;68091.63;6222984;23;20310;-83
2021/05/01 09:49:33;;;;;;;103.13;61.95;;;;;;;-143.98;100.00;68091.63;6223799;23;20112;-84
2021/05/01 09:52:11;;;;;;;97.18;59.70;;;;;;;-143.98;100.00;68091.63;6222707;23;20242;-83
2021/05/01 09:54:59;;;;;;;99.95;60.95;;;;;;;-143.98;100.00;68091.63;6197178;23;20419;-81
2021/05/01 09:57:25;;;;;;;90.85;57.50;;;;;;;-143.98;100.00;68091.63;6251174;23;20204;-82
2021/05/01 09:59:55;;;;;;;81.40;51.53;;;;;;;-143.98;100.00;68091.63;6221871;23;20087;-80
2021/05/01 10:02:30;;;;;;;81.07;51.80;;;;;;;-143.98;100.00;68091.63;6198967;23;20035;-81
2021/05/01 10:05:03;;;;;;;79.25;49.90;;;;;;;-143.98;100.00;68091.63;6230844;23;20081;-82
2021/05/01 10:07:31;;;;;;;75.78;48.95;;;;;;;-143.98;100.00;68091.63;6257523;23;20051;-82
2021/05/01 10:09:58;;;;;;;62.30;43.15;;;;;;;-143.98;100.00;68091.63;6204745;23;20024;-82
2021/05/01 10:12:40;;;;;;;63.13;43.55;;;;;;;-143.98;100.00;68091.63;6228861;23;20028;-81
2021/05/01 10:15:25;;;;;;;65.28;43.85;;;;;;;-143.98;100.00;68091.63;6228438;23;20035;-81
2021/05/01 10:18:11;;;;;;;61.95;43.75;;;;;;;-143.98;100.00;68091.63;6225260;23;20075;-81
2021/05/01 10:20:49;;;;;;;56.78;38.97;;;;;;;-143.98;100.00;68091.63;6222894;23;20095;-81
2021/05/01 10:23:20;;;;;;;62.85;39.58;;;;;;;-143.98;100.00;68091.63;6221743;23;20028;-82
2021/05/01 10:25:47;;;;;;;59.65;40.63;;;;;;;-143.98;100.00;68091.63;6223038;23;20043;-81
2021/05/01 10:28:20;;;;;;;60.90;39.83;;;;;;;-143.98;100.00;68091.63;6194926;23;20032;-81
2021/05/01 10:30:54;;;;;;;56.60;38.63;;;;;;;-143.98;100.00;68091.63;6256301;23;20462;-80
2021/05/01 10:33:33;;;;;;;58.55;39.80;;;;;;;-143.98;100.00;68091.63;6228210;23;20047;-80
2021/05/01 10:36:39;;;;;;;57.25;36.97;;;;;;;-143.98;100.00;68091.63;6223648;23;20181;-81
2021/05/01 10:39:09;;;;;;;48.00;34.47;;;;;;;-143.98;100.00;68091.63;6223251;23;20477;-82
2021/05/01 10:41:37;;;;;;;49.45;34.00;;;;;;;-143.98;100.00;68091.63;6226724;23;20321;-81
2021/05/01 10:44:07;;;;;;;53.60;35.67;;;;;;;-143.98;100.00;68091.63;6232694;23;20254;-81
2021/05/01 10:46:39;;;;;;;51.08;34.67;;;;;;;-143.98;100.00;68091.63;6225194;23;20082;-81
2021/05/01 10:49:08;;;;;;;54.25;36.45;;;;;;;-143.98;100.00;68091.63;6198601;23;20028;-80
2021/05/01 10:51:50;;;;;;;54.88;38.22;;;;;;;-143.98;100.00;68091.63;6221141;23;20047;-80
2021/05/01 10:54:22;;;;;;;56.00;37.78;;;;;;;-143.98;100.00;68091.63;6222083;23;20031;-81
2021/05/01 10:56:50;;;;;;;56.65;38.88;;;;;;;-143.98;100.00;68091.63;6221535;23;20032;-81
2021/05/01 10:59:19;;;;;;;59.08;40.03;;;;;;;-143.98;100.00;68091.63;6222254;23;20032;-81
2021/05/01 11:01:47;;;;;;;54.55;38.60;;;;;;;-143.98;100.00;68091.63;6222100;23;20171;-81
2021/05/01 11:04:28;;;;;;;55.10;36.50;;;;;;;-143.98;100.00;68091.63;6197158;23;20031;-80
2021/05/01 11:07:39;;;;;;;54.92;38.25;;;;;;;-143.98;100.00;68091.63;6196803;23;20115;-81
2021/05/01 11:10:16;;;;;;;56.40;36.60;;;;;;;-143.98;100.00;68091.63;6163759;23;20037;-80
2021/05/01 11:13:06;;;;;;;51.85;36.33;;;;;;;-143.98;100.00;68091.63;6221397;23;20068;-83
2021/05/01 11:15:41;;;;;;;51.92;34.92;;;;;;;-143.98;100.00;68091.63;6219707;23;20409;-80